createdAt,value
2018-05-23T00:00:45.809Z,83.27
2018-05-23T00:03:13.943Z,83.74
2018-05-23T00:05:42.110Z,83.62
2018-05-23T00:08:10.241Z,82.88
2018-05-23T00:37:37.596Z,83.94
2018-05-23T00:40:05.746Z,84.22
2018-05-23T00:42:34.671Z,84.38
2018-05-23T00:45:02.839Z,84.44
2018-05-23T00:47:30.990Z,84.59
2018-05-23T00:49:59.134Z,84.35
2018-05-23T00:52:27.308Z,84.37
2018-05-23T00:55:07.254Z,84.31
2018-05-23T00:57:35.410Z,83.90
2018-05-23T01:00:03.577Z,83.44
2018-05-23T01:02:32.967Z,83.18
2018-05-23T01:05:01.109Z,83.73
2018-05-23T01:07:29.275Z,83.32
2018-05-23T01:09:57.420Z,83.52
2018-05-23T01:12:25.576Z,83.61
2018-05-23T01:14:53.757Z,84.16
2018-05-23T01:17:21.916Z,84.60
2018-05-23T01:19:50.081Z,84.92
2018-05-23T01:22:30.918Z,85.20
2018-05-23T01:24:59.060Z,85.61
2018-05-23T01:27:27.218Z,85.74
2018-05-23T01:29:55.377Z,86.21
2018-05-23T01:32:24.657Z,86.21
2018-05-23T01:34:52.810Z,85.83
2018-05-23T01:37:20.964Z,85.88
2018-05-23T01:39:49.110Z,85.50
2018-05-23T01:42:17.247Z,85.19
2018-05-23T01:44:45.419Z,85.57
2018-05-23T01:47:13.554Z,85.58
2018-05-23T01:49:41.699Z,85.27
2018-05-23T01:52:09.856Z,84.88
2018-05-23T01:54:37.997Z,84.90
2018-05-23T01:57:06.171Z,84.68
2018-05-23T01:59:34.307Z,84.43
2018-05-23T02:02:05.815Z,84.02
2018-05-23T02:04:33.968Z,83.51
2018-05-23T02:07:02.118Z,83.99
2018-05-23T02:09:30.275Z,84.23
2018-05-23T02:11:58.435Z,84.19
2018-05-23T02:14:26.595Z,83.88
2018-05-23T02:16:54.728Z,83.53
2018-05-23T02:19:22.890Z,83.17
2018-05-23T02:21:51.037Z,83.55
2018-05-23T02:24:19.208Z,83.74
2018-05-23T02:26:47.341Z,84.05
2018-05-23T02:29:15.498Z,84.17
2018-05-23T02:31:43.660Z,84.37
2018-05-23T02:34:11.851Z,84.91
2018-05-23T02:36:39.995Z,85.55
2018-05-23T02:39:08.139Z,85.85
2018-05-23T02:41:36.993Z,85.85
2018-05-23T02:44:08.379Z,85.95
2018-05-23T02:46:37.121Z,85.48
2018-05-23T02:49:05.285Z,85.90
2018-05-23T02:51:33.457Z,85.80
2018-05-23T02:54:01.591Z,85.83
2018-05-23T02:56:29.759Z,85.17
2018-05-23T02:58:57.899Z,85.48
2018-05-23T03:01:26.088Z,85.29
2018-05-23T03:03:54.319Z,85.10
2018-05-23T03:06:22.474Z,84.91
2018-05-23T03:08:53.228Z,85.09
2018-05-23T03:11:21.387Z,85.48
2018-05-23T03:13:49.522Z,85.41
2018-05-23T03:16:24.200Z,85.41
2018-05-23T03:18:52.361Z,85.30
2018-05-23T03:21:33.537Z,85.33
2018-05-23T03:24:01.699Z,85.10
2018-05-23T03:26:33.246Z,85.01
2018-05-23T03:29:01.439Z,85.40
2018-05-23T03:31:29.578Z,85.23
2018-05-23T03:34:06.161Z,84.99
2018-05-23T03:36:34.305Z,84.87
2018-05-23T03:39:02.446Z,85.31
2018-05-23T03:41:30.597Z,85.65
2018-05-23T03:43:58.743Z,85.45
2018-05-23T03:46:33.170Z,85.31
2018-05-23T03:49:01.333Z,85.17
2018-05-23T03:51:29.491Z,85.24
2018-05-23T03:53:57.667Z,84.98
2018-05-23T03:56:25.813Z,85.24
2018-05-23T03:59:04.363Z,85.16
2018-05-23T04:01:44.365Z,85.42
2018-05-23T04:04:24.272Z,85.39
2018-05-23T04:07:07.489Z,85.27
2018-05-23T04:09:42.292Z,85.54
2018-05-23T04:12:11.225Z,85.43
2018-05-23T04:14:39.377Z,85.53
2018-05-23T04:17:07.521Z,85.42
2018-05-23T04:19:35.673Z,85.18
2018-05-23T04:22:03.925Z,85.46
2018-05-23T04:24:42.331Z,85.48
2018-05-23T04:27:10.471Z,85.57
2018-05-23T04:29:38.627Z,85.41
2018-05-23T04:32:06.779Z,85.29
2018-05-23T04:34:34.942Z,85.10
2018-05-23T04:37:03.097Z,85.13
2018-05-23T04:39:31.237Z,84.74
2018-05-23T04:41:59.393Z,85.05
2018-05-23T04:44:27.520Z,85.27
2018-05-23T04:46:55.665Z,84.67
2018-05-23T04:49:23.825Z,84.59
2018-05-23T04:51:52.038Z,84.63
2018-05-23T04:54:32.834Z,84.55
2018-05-23T04:57:00.972Z,84.35
2018-05-23T04:59:29.120Z,84.22
2018-05-23T05:01:57.291Z,84.16
2018-05-23T05:04:25.470Z,84.23
2018-05-23T05:06:53.670Z,83.65
2018-05-23T05:09:22.791Z,83.42
2018-05-23T05:11:50.938Z,83.62
2018-05-23T05:14:19.091Z,83.62
2018-05-23T05:16:47.243Z,83.52
2018-05-23T05:19:15.392Z,83.51
2018-05-23T05:21:43.542Z,83.29
2018-05-23T05:24:11.682Z,82.92
2018-05-23T05:26:40.808Z,83.30
2018-05-23T05:29:08.949Z,83.23
2018-05-23T05:31:37.113Z,83.33
2018-05-23T05:34:05.244Z,83.29
2018-05-23T05:36:35.570Z,82.99
2018-05-23T05:39:03.716Z,82.70
2018-05-23T05:41:41.935Z,82.70
2018-05-23T05:44:10.073Z,82.30
2018-05-23T05:46:38.224Z,82.12
2018-05-23T05:49:06.392Z,82.26
2018-05-23T05:51:34.518Z,82.12
2018-05-23T05:54:02.680Z,81.47
2018-05-23T05:56:30.818Z,81.51
2018-05-23T05:58:58.969Z,81.48
2018-05-23T06:01:27.126Z,81.11
2018-05-23T06:04:01.708Z,81.38
2018-05-23T06:06:29.861Z,81.42
2018-05-23T06:08:58.042Z,81.14
2018-05-23T06:11:26.249Z,80.70
2018-05-23T06:13:54.406Z,80.33
2018-05-23T06:16:29.337Z,79.89
2018-05-23T06:18:57.505Z,79.04
2018-05-23T06:21:25.654Z,78.59
2018-05-23T06:23:53.794Z,79.43
2018-05-23T06:26:21.946Z,78.22
2018-05-23T06:28:50.103Z,78.45
2018-05-23T06:31:18.260Z,77.23
2018-05-23T06:33:46.425Z,78.54
2018-05-23T06:36:14.585Z,76.49
2018-05-23T06:38:49.444Z,76.95
2018-05-23T06:41:17.600Z,76.74
2018-05-23T06:43:51.803Z,76.59
2018-05-23T06:46:33.787Z,77.32
2018-05-23T06:49:01.925Z,77.51
2018-05-23T06:51:30.095Z,76.05
2018-05-23T06:54:04.977Z,76.89
2018-05-23T06:56:33.143Z,75.44
2018-05-23T06:59:01.306Z,75.61
2018-05-23T07:01:29.458Z,76.36
2018-05-23T07:03:57.600Z,75.97
2018-05-23T07:06:29.010Z,75.90
2018-05-23T07:09:01.031Z,75.76
2018-05-23T07:11:29.200Z,75.45
2018-05-23T07:13:57.356Z,74.26
2018-05-23T07:16:25.498Z,74.74
2018-05-23T07:19:10.282Z,75.29
2018-05-23T07:21:38.425Z,74.86
2018-05-23T07:24:08.750Z,74.77
2018-05-23T07:26:36.918Z,75.45
2018-05-23T07:29:05.062Z,75.23
2018-05-23T07:31:35.043Z,73.56
2018-05-23T07:34:03.183Z,73.71
2018-05-23T07:36:31.333Z,71.08
2018-05-23T07:38:59.465Z,72.53
2018-05-23T07:41:27.619Z,71.38
2018-05-23T07:44:02.175Z,72.43
2018-05-23T07:46:30.341Z,72.10
2018-05-23T07:48:58.499Z,73.26
2018-05-23T07:51:28.398Z,72.61
2018-05-23T07:53:56.541Z,72.41
2018-05-23T07:56:29.395Z,72.70
2018-05-23T07:59:03.834Z,71.44
2018-05-23T08:01:32.003Z,71.34
2018-05-23T08:04:00.186Z,73.04
2018-05-23T08:06:28.341Z,71.49
2018-05-23T08:08:56.504Z,71.42
2018-05-23T08:11:24.700Z,70.84
2018-05-23T08:13:52.851Z,71.60
2018-05-23T08:16:21.029Z,70.93
2018-05-23T08:18:49.164Z,70.86
2018-05-23T08:21:17.329Z,71.64
2018-05-23T08:23:45.480Z,71.66
2018-05-23T08:26:16.834Z,70.00
2018-05-23T08:28:44.985Z,71.48
2018-05-23T08:31:20.008Z,71.78
2018-05-23T08:33:48.192Z,71.07
2018-05-23T08:36:17.455Z,70.50
2018-05-23T08:38:45.564Z,68.35
2018-05-23T08:41:13.713Z,69.67
2018-05-23T08:43:41.875Z,70.11
2018-05-23T08:46:10.037Z,69.70
2018-05-23T08:48:38.199Z,69.87
2018-05-23T08:51:06.386Z,69.75
2018-05-23T08:53:34.551Z,68.89
2018-05-23T08:56:02.730Z,69.57
2018-05-23T08:58:30.871Z,69.14
2018-05-23T09:03:31.659Z,68.35
2018-05-23T09:05:59.851Z,67.63
2018-05-23T09:08:27.991Z,66.71
2018-05-23T09:10:56.165Z,66.81
2018-05-23T09:13:24.344Z,67.50
2018-05-23T09:15:52.489Z,66.20
2018-05-23T09:18:20.667Z,65.17
2018-05-23T09:20:55.224Z,62.39
2018-05-23T09:23:23.390Z,64.53
2018-05-23T09:25:51.537Z,62.80
2018-05-23T09:28:19.723Z,63.18
2018-05-23T09:30:48.771Z,62.20
2018-05-23T09:33:16.970Z,62.27
2018-05-23T09:35:48.097Z,62.81
2018-05-23T09:38:16.285Z,65.83
2018-05-23T09:40:44.454Z,63.65
2018-05-23T09:43:12.615Z,63.73
2018-05-23T09:45:40.779Z,63.84
2018-05-23T09:48:12.119Z,64.43
2018-05-23T09:50:40.282Z,63.85
2018-05-23T09:53:10.798Z,61.13
2018-05-23T09:55:38.980Z,62.46
2018-05-23T09:58:12.893Z,61.64
2018-05-23T10:00:47.259Z,63.01
2018-05-23T10:03:15.419Z,66.35
2018-05-23T10:05:43.573Z,63.82
2018-05-23T10:08:12.885Z,62.17
2018-05-23T10:10:41.108Z,64.41
2018-05-23T10:13:09.274Z,62.48
2018-05-23T10:15:37.429Z,62.01
2018-05-23T10:18:12.141Z,61.06
2018-05-23T10:20:41.705Z,62.82
2018-05-23T10:23:09.895Z,62.56
2018-05-23T10:25:38.049Z,62.78
2018-05-23T10:28:06.176Z,62.20
2018-05-23T10:30:34.333Z,63.11
2018-05-23T10:33:02.510Z,61.68
2018-05-23T10:35:30.684Z,59.94
2018-05-23T10:37:59.175Z,57.00
2018-05-23T10:40:27.343Z,60.28
2018-05-23T10:42:55.509Z,59.58
2018-05-23T10:45:27.451Z,58.40
2018-05-23T10:47:55.608Z,60.10
2018-05-23T10:50:23.756Z,58.64
2018-05-23T10:52:51.904Z,58.17
2018-05-23T10:55:20.881Z,58.10
2018-05-23T10:57:52.626Z,54.53
2018-05-23T11:00:21.002Z,56.13
2018-05-23T11:02:49.266Z,56.92
2018-05-23T11:05:17.336Z,56.89
2018-05-23T11:07:45.513Z,57.07
2018-05-23T11:10:19.624Z,57.48
2018-05-23T11:12:47.784Z,57.38
2018-05-23T11:15:17.655Z,56.42
2018-05-23T11:17:45.785Z,55.80
2018-05-23T11:20:13.931Z,56.78
2018-05-23T11:22:42.070Z,57.00
2018-05-23T11:25:13.330Z,56.21
2018-05-23T11:27:41.503Z,56.71
2018-05-23T11:30:11.392Z,56.19
2018-05-23T11:32:42.574Z,56.20
2018-05-23T11:35:10.732Z,57.02
2018-05-23T11:37:38.890Z,58.37
2018-05-23T11:40:07.027Z,56.42
2018-05-23T11:42:35.186Z,54.74
2018-05-23T11:45:03.340Z,56.11
2018-05-23T11:47:31.517Z,55.04
2018-05-23T11:49:59.668Z,54.99
2018-05-23T11:52:27.855Z,56.27
2018-05-23T11:54:56.001Z,56.98
2018-05-23T11:57:24.155Z,58.36
2018-05-23T11:59:52.458Z,56.96
2018-05-23T12:02:20.625Z,55.64
2018-05-23T12:04:48.789Z,53.90
2018-05-23T12:07:16.947Z,51.92
2018-05-23T12:09:45.097Z,51.91
2018-05-23T12:12:14.117Z,51.14
2018-05-23T12:14:42.270Z,51.50
2018-05-23T12:17:10.477Z,53.67
2018-05-23T12:19:38.721Z,55.39
2018-05-23T12:22:06.818Z,53.15
2018-05-23T12:24:35.060Z,52.81
2018-05-23T12:27:03.225Z,50.04
2018-05-23T12:29:31.360Z,47.81
2018-05-23T12:31:59.519Z,50.06
2018-05-23T12:34:34.344Z,47.30
2018-05-23T12:37:02.509Z,49.60
2018-05-23T12:39:30.651Z,48.50
2018-05-23T12:41:58.821Z,49.02
2018-05-23T12:44:29.892Z,52.30
2018-05-23T12:46:58.058Z,50.49
2018-05-23T12:49:26.234Z,52.54
2018-05-23T12:51:54.388Z,52.39
2018-05-23T12:54:22.530Z,50.27
2018-05-23T12:56:59.197Z,50.69
2018-05-23T12:59:27.369Z,50.70
2018-05-23T13:01:56.241Z,50.04
2018-05-23T13:04:34.699Z,49.66
2018-05-23T13:07:02.846Z,52.91
2018-05-23T13:09:31.046Z,48.40
2018-05-23T13:11:59.179Z,49.29
2018-05-23T13:14:27.332Z,47.70
2018-05-23T13:16:56.284Z,45.92
2018-05-23T13:19:30.636Z,47.72
2018-05-23T13:21:58.801Z,48.04
2018-05-23T13:24:39.632Z,47.86
2018-05-23T13:27:07.774Z,46.31
2018-05-23T13:29:36.571Z,46.25
2018-05-23T13:32:04.744Z,45.82
2018-05-23T13:34:32.891Z,45.89
2018-05-23T13:37:01.061Z,47.21
2018-05-23T13:39:29.388Z,42.94
2018-05-23T13:41:57.540Z,43.54
2018-05-23T13:44:25.798Z,44.93
2018-05-23T13:46:53.931Z,43.90
2018-05-23T13:49:22.126Z,45.05
2018-05-23T13:51:50.261Z,44.28
2018-05-23T13:54:18.422Z,43.57
2018-05-23T13:56:46.591Z,44.75
2018-05-23T13:59:14.766Z,42.11
2018-05-23T14:01:43.011Z,41.40
2018-05-23T14:04:11.066Z,40.99
2018-05-23T14:06:39.230Z,39.41
2018-05-23T14:09:08.166Z,41.12
2018-05-23T14:11:36.324Z,39.16
2018-05-23T14:14:05.445Z,38.89
2018-05-23T14:16:33.631Z,38.46
2018-05-23T14:19:01.789Z,38.28
2018-05-23T14:21:29.964Z,38.07
2018-05-23T14:23:58.091Z,37.50
2018-05-23T14:26:26.226Z,37.88
2018-05-23T14:28:54.434Z,40.13
2018-05-23T14:31:22.621Z,40.19
2018-05-23T14:33:50.784Z,39.94
2018-05-23T14:36:18.930Z,37.08
2018-05-23T14:38:47.102Z,42.76
2018-05-23T14:41:15.244Z,41.11
2018-05-23T14:43:43.558Z,39.68
2018-05-23T14:46:11.672Z,38.16
2018-05-23T14:48:39.898Z,39.15
2018-05-23T14:51:08.077Z,38.16
2018-05-23T14:53:36.225Z,36.08
2018-05-23T14:56:04.380Z,36.52
2018-05-23T14:58:32.529Z,36.57
2018-05-23T15:01:00.674Z,37.01
2018-05-23T15:03:35.811Z,37.31
2018-05-23T15:06:04.592Z,37.61
2018-05-23T15:08:32.759Z,37.28
2018-05-23T15:11:00.962Z,37.88
2018-05-23T15:13:29.136Z,37.88
2018-05-23T15:15:57.266Z,38.80
2018-05-23T15:18:26.195Z,39.18
2018-05-23T15:20:54.562Z,39.00
2018-05-23T15:23:22.719Z,37.25
2018-05-23T15:25:50.888Z,39.91
2018-05-23T15:28:19.039Z,41.90
2018-05-23T15:30:47.206Z,40.30
2018-05-23T15:33:15.362Z,39.96
2018-05-23T15:35:43.516Z,40.57
2018-05-23T15:38:11.691Z,41.20
2018-05-23T15:40:41.441Z,41.16
2018-05-23T15:43:09.643Z,40.66
2018-05-23T15:45:41.255Z,41.37
2018-05-23T15:48:09.784Z,41.88
2018-05-23T15:50:37.962Z,41.48
2018-05-23T15:53:06.106Z,41.63
2018-05-23T15:55:34.266Z,42.26
2018-05-23T15:58:02.415Z,43.32
2018-05-23T16:00:30.563Z,43.39
2018-05-23T16:02:58.802Z,42.76
2018-05-23T16:05:26.897Z,43.59
2018-05-23T16:07:55.082Z,44.04
2018-05-23T16:10:23.241Z,43.95
2018-05-23T16:12:51.430Z,44.10
2018-05-23T16:15:19.654Z,44.50
2018-05-23T16:17:47.762Z,45.14
2018-05-23T16:20:17.081Z,45.51
2018-05-23T16:22:45.231Z,44.66
2018-05-23T16:25:13.415Z,45.28
2018-05-23T16:27:42.607Z,45.60
2018-05-23T16:30:10.878Z,45.76
2018-05-23T16:32:39.035Z,46.37
2018-05-23T16:35:07.189Z,46.73
2018-05-23T16:37:35.316Z,46.28
2018-05-23T16:40:03.474Z,45.86
2018-05-23T16:42:31.620Z,46.35
2018-05-23T16:44:59.814Z,46.34
2018-05-23T16:47:27.989Z,46.97
2018-05-23T16:49:56.147Z,47.42
2018-05-23T16:52:24.292Z,47.29
2018-05-23T16:54:52.459Z,47.14
2018-05-23T16:57:20.619Z,47.24
2018-05-23T16:59:48.764Z,47.41
2018-05-23T17:02:16.931Z,48.28
2018-05-23T17:04:45.089Z,48.43
2018-05-23T17:07:14.917Z,47.80
2018-05-23T17:09:43.054Z,47.84
2018-05-23T17:12:11.269Z,48.00
2018-05-23T17:14:39.424Z,48.14
2018-05-23T17:17:07.592Z,48.54
2018-05-23T17:19:35.766Z,48.79
2018-05-23T17:22:03.913Z,47.94
2018-05-23T17:24:32.654Z,48.08
2018-05-23T17:27:00.802Z,48.33
2018-05-23T17:29:28.955Z,48.86
2018-05-23T17:31:57.087Z,48.94
2018-05-23T17:34:25.255Z,48.99
2018-05-23T17:36:53.403Z,49.12
2018-05-23T17:39:21.583Z,49.53
2018-05-23T17:41:49.739Z,49.82
2018-05-23T17:44:18.260Z,50.06
2018-05-23T17:46:46.421Z,50.27
2018-05-23T17:49:14.578Z,50.55
2018-05-23T17:51:46.296Z,50.48
2018-05-23T17:54:18.554Z,50.56
2018-05-23T17:56:46.726Z,51.08
2018-05-23T17:59:15.017Z,51.83
2018-05-23T18:01:43.185Z,51.80
2018-05-23T18:04:11.339Z,57.82
2018-05-23T18:06:39.517Z,58.13
2018-05-23T18:09:07.663Z,63.57
2018-05-23T18:11:35.810Z,66.21
2018-05-23T18:14:04.026Z,68.79
2018-05-23T18:16:32.187Z,67.82
2018-05-23T18:19:00.343Z,71.34
2018-05-23T18:21:28.922Z,74.90
2018-05-23T18:23:57.135Z,75.78
2018-05-23T18:26:26.129Z,77.27
2018-05-23T18:28:55.089Z,78.77
2018-05-23T18:31:23.244Z,75.78
2018-05-23T18:33:51.436Z,75.73
2018-05-23T18:36:19.612Z,73.67
2018-05-23T18:38:47.801Z,72.44
2018-05-23T18:41:15.983Z,73.63
2018-05-23T18:43:44.155Z,73.48
2018-05-23T18:46:12.346Z,73.90
2018-05-23T18:48:40.499Z,76.61
2018-05-23T18:51:08.648Z,75.94
2018-05-23T18:53:36.819Z,77.01
2018-05-23T18:56:04.979Z,76.47
2018-05-23T18:58:33.225Z,78.04
2018-05-23T19:01:01.410Z,75.41
2018-05-23T19:03:29.568Z,76.57
2018-05-23T19:06:01.501Z,74.80
2018-05-23T19:08:29.660Z,76.79
2018-05-23T19:10:57.805Z,78.11
2018-05-23T19:13:27.133Z,78.70
2018-05-23T19:15:55.343Z,78.06
2018-05-23T19:18:23.504Z,76.75
2018-05-23T19:20:54.499Z,77.80
2018-05-23T19:23:22.659Z,77.98
2018-05-23T19:25:50.828Z,78.63
2018-05-23T19:28:20.002Z,79.67
2018-05-23T19:30:48.187Z,79.75
2018-05-23T19:33:16.376Z,79.55
2018-05-23T19:35:44.533Z,80.11
2018-05-23T19:38:12.667Z,78.46
2018-05-23T19:40:40.830Z,79.21
2018-05-23T19:43:08.995Z,79.21
2018-05-23T19:45:37.196Z,80.15
2018-05-23T19:48:05.350Z,79.85
2018-05-23T19:50:33.512Z,77.51
2018-05-23T19:53:01.737Z,78.20
2018-05-23T19:55:29.860Z,78.96
2018-05-23T19:57:58.034Z,78.58
2018-05-23T20:00:27.066Z,80.09
2018-05-23T20:02:55.231Z,81.11
2018-05-23T20:05:23.381Z,80.90
2018-05-23T20:07:51.532Z,81.28
2018-05-23T20:10:19.704Z,81.54
2018-05-23T20:12:47.912Z,81.54
2018-05-23T20:15:16.072Z,81.24
2018-05-23T20:17:44.260Z,81.03
2018-05-23T20:20:12.408Z,81.70
2018-05-23T20:22:40.685Z,82.50
2018-05-23T20:25:08.838Z,82.44
2018-05-23T20:27:36.985Z,81.89
2018-05-23T20:30:05.151Z,82.41
2018-05-23T20:32:33.349Z,82.22
2018-05-23T20:35:01.534Z,82.25
2018-05-23T20:37:29.709Z,82.74
2018-05-23T20:39:57.886Z,82.62
2018-05-23T20:42:26.056Z,84.24
2018-05-23T20:44:54.230Z,84.58
2018-05-23T20:47:22.397Z,84.38
2018-05-23T20:49:50.567Z,84.37
2018-05-23T20:52:18.734Z,84.44
2018-05-23T20:54:46.892Z,83.81
2018-05-23T20:57:15.059Z,84.33
2018-05-23T20:59:43.227Z,84.67
2018-05-23T21:02:11.391Z,84.50
2018-05-23T21:04:39.557Z,83.96
2018-05-23T21:07:07.719Z,84.45
2018-05-23T21:09:35.886Z,84.34
2018-05-23T21:12:04.055Z,84.09
2018-05-23T21:14:32.220Z,84.09
2018-05-23T21:17:00.371Z,84.48
2018-05-23T21:19:28.609Z,84.40
2018-05-23T21:21:56.759Z,84.74
2018-05-23T21:24:24.935Z,84.54
2018-05-23T21:26:53.067Z,84.30
2018-05-23T21:29:21.229Z,84.27
2018-05-23T21:31:49.395Z,83.69
2018-05-23T21:34:18.590Z,83.40
2018-05-23T21:36:46.750Z,82.83
2018-05-23T21:39:14.921Z,83.19
2018-05-23T21:41:43.083Z,83.60
2018-05-23T21:44:11.235Z,84.22
2018-05-23T21:46:39.730Z,84.31
2018-05-23T21:49:07.879Z,84.55
2018-05-23T21:51:36.038Z,84.23
2018-05-23T21:54:04.220Z,83.37
2018-05-23T21:56:32.377Z,83.37
2018-05-23T21:59:00.549Z,82.80
2018-05-23T22:01:28.734Z,82.56
2018-05-23T22:03:56.892Z,82.39
2018-05-23T22:06:25.061Z,82.20
2018-05-23T22:08:53.521Z,82.08
2018-05-23T22:11:21.679Z,83.97
2018-05-23T22:13:49.859Z,82.92
2018-05-23T22:16:21.484Z,82.86
2018-05-23T22:18:49.660Z,83.28
2018-05-23T22:21:17.808Z,83.81
2018-05-23T22:23:45.990Z,83.96
2018-05-23T22:26:14.240Z,84.27
2018-05-23T22:28:42.420Z,84.91
2018-05-23T22:31:10.585Z,84.82
2018-05-23T22:33:38.785Z,85.36
2018-05-23T22:36:07.046Z,85.44
2018-05-23T22:38:35.225Z,85.39
2018-05-23T22:41:03.400Z,85.11
2018-05-23T22:43:31.570Z,85.95
2018-05-23T22:45:59.807Z,86.09
2018-05-23T22:48:28.718Z,86.07
2018-05-23T22:50:56.981Z,86.10
2018-05-23T22:53:25.138Z,86.31
2018-05-23T22:55:53.303Z,86.14
2018-05-23T22:58:21.447Z,86.54
2018-05-23T23:00:49.649Z,86.42
2018-05-23T23:03:20.967Z,85.77
2018-05-23T23:05:49.131Z,85.33
2018-05-23T23:08:17.311Z,85.59
2018-05-23T23:10:45.469Z,85.87
2018-05-23T23:13:13.631Z,85.71
2018-05-23T23:15:41.781Z,85.75
2018-05-23T23:18:12.437Z,85.73
2018-05-23T23:20:40.593Z,86.70
2018-05-23T23:23:08.762Z,87.07
2018-05-23T23:25:36.917Z,87.52
2018-05-23T23:28:05.097Z,87.77
2018-05-23T23:30:33.265Z,87.82
2018-05-23T23:33:01.407Z,87.54
2018-05-23T23:35:29.588Z,87.71
2018-05-23T23:37:57.777Z,87.63
2018-05-23T23:40:25.965Z,87.49
2018-05-23T23:42:54.117Z,87.40
2018-05-23T23:45:22.435Z,87.57
2018-05-23T23:47:51.315Z,87.47
2018-05-23T23:50:19.473Z,86.91
2018-05-23T23:53:00.270Z,86.71
2018-05-23T23:55:29.383Z,86.92
2018-05-23T23:57:57.523Z,87.46
